Time;durP1;ratioP1;P1;durP2;ratioP2;P2;SDS_P1;SDS_P2;PMS_P1;PMS_P2;Temp;Humidity;BMP_temperature;BMP_pressure;BME280_temperature;BME280_humidity;BME280_pressure;Samples;Min_cycle;Max_cycle;Signal;HPM_P1;HPM_P2
2024/01/25 00:01:22;;;;;;;12.55;4.32;;;13.00;63.70;;;;;;6260405;28;20025;-72
2024/01/25 00:04:23;;;;;;;12.68;5.57;;;13.00;63.60;;;;;;6249658;28;20021;-72
2024/01/25 00:07:24;;;;;;;13.55;5.45;;;13.00;63.70;;;;;;6240824;28;20495;-72
2024/01/25 00:10:25;;;;;;;8.30;4.28;;;13.00;63.80;;;;;;6240839;28;20102;-72
2024/01/25 00:13:25;;;;;;;11.45;4.90;;;13.00;64.00;;;;;;6244033;28;20430;-73
2024/01/25 00:16:27;;;;;;;12.07;5.47;;;12.90;63.90;;;;;;6260835;28;20051;-72
2024/01/25 00:19:28;;;;;;;12.48;5.18;;;12.90;64.00;;;;;;6251923;28;20021;-74
2024/01/25 00:22:29;;;;;;;10.32;4.88;;;12.90;64.20;;;;;;6244935;28;20036;-73
2024/01/25 00:25:30;;;;;;;10.43;4.53;;;12.90;64.30;;;;;;6236164;28;20049;-73
2024/01/25 00:28:33;;;;;;;11.85;5.07;;;12.80;64.30;;;;;;6246775;28;20084;-72
2024/01/25 00:31:33;;;;;;;9.70;4.68;;;12.80;64.40;;;;;;6250391;28;20055;-72
2024/01/25 00:34:35;;;;;;;9.77;4.72;;;12.80;64.60;;;;;;6244208;28;20017;-73
2024/01/25 00:37:37;;;;;;;10.95;4.72;;;12.70;64.60;;;;;;6253750;28;20070;-72
2024/01/25 00:40:38;;;;;;;10.10;4.40;;;12.70;64.70;;;;;;6248789;28;20440;-72
2024/01/25 00:43:39;;;;;;;16.35;4.22;;;12.70;64.80;;;;;;6252370;28;20055;-72
2024/01/25 00:46:41;;;;;;;16.27;4.60;;;12.70;64.90;;;;;;6253640;28;20166;-73
2024/01/25 00:49:42;;;;;;;9.88;4.38;;;12.60;65.00;;;;;;6246333;28;20545;-73
2024/01/25 00:52:44;;;;;;;11.63;5.20;;;12.60;65.10;;;;;;6246315;28;20116;-72
2024/01/25 00:55:45;;;;;;;12.70;4.70;;;12.60;65.30;;;;;;6245600;28;20144;-73
2024/01/25 00:58:46;;;;;;;9.43;3.80;;;12.50;65.30;;;;;;6247930;28;20060;-73
2024/01/25 01:01:48;;;;;;;10.43;4.82;;;12.50;65.50;;;;;;6251683;28;20049;-73
2024/01/25 01:04:49;;;;;;;14.20;4.53;;;12.50;65.70;;;;;;6275850;28;20195;-72
2024/01/25 01:07:50;;;;;;;10.80;4.97;;;12.40;65.70;;;;;;6261165;28;20033;-73
2024/01/25 01:10:51;;;;;;;17.80;5.60;;;12.50;65.80;;;;;;6262835;28;20032;-72
2024/01/25 01:13:53;;;;;;;9.75;4.40;;;12.50;65.80;;;;;;6250801;28;20048;-72
2024/01/25 01:16:55;;;;;;;8.18;4.38;;;12.50;65.70;;;;;;6246828;28;20021;-73
2024/01/25 01:19:56;;;;;;;8.73;4.80;;;12.40;65.60;;;;;;6257262;28;20037;-73
2024/01/25 01:22:58;;;;;;;8.85;4.75;;;12.50;65.70;;;;;;6250529;28;20033;-73
2024/01/25 01:25:59;;;;;;;9.90;4.82;;;12.50;65.70;;;;;;6246102;28;20017;-72
2024/01/25 01:28:59;;;;;;;17.85;4.55;;;12.50;65.80;;;;;;6246820;28;20794;-73
2024/01/25 01:32:00;;;;;;;10.38;4.80;;;12.40;66.70;;;;;;6262330;28;20025;-73
2024/01/25 01:35:01;;;;;;;9.80;4.30;;;12.40;66.00;;;;;;6267753;28;20013;-72
2024/01/25 01:38:02;;;;;;;12.13;4.93;;;12.30;65.90;;;;;;6259822;28;20445;-73
2024/01/25 01:41:03;;;;;;;11.38;4.63;;;12.40;66.00;;;;;;6243546;28;20049;-73
2024/01/25 01:44:04;;;;;;;9.13;4.22;;;12.40;66.00;;;;;;6265868;28;20033;-73
2024/01/25 01:47:05;;;;;;;8.77;4.32;;;12.40;65.90;;;;;;6247635;28;20044;-73
2024/01/25 01:50:06;;;;;;;7.88;4.35;;;12.40;66.00;;;;;;6241556;28;20021;-73
2024/01/25 01:53:08;;;;;;;13.13;5.00;;;12.40;66.10;;;;;;6279743;28;20033;-72
2024/01/25 01:56:10;;;;;;;15.40;5.00;;;12.40;66.00;;;;;;6243117;28;20032;-71
2024/01/25 01:59:11;;;;;;;11.88;4.20;;;12.40;66.00;;;;;;6275369;28;20103;-74
2024/01/25 02:02:12;;;;;;;13.63;5.80;;;12.40;66.20;;;;;;6260383;28;20470;-72
2024/01/25 02:05:13;;;;;;;11.93;5.15;;;12.40;66.20;;;;;;6221856;28;20137;-72
2024/01/25 02:08:14;;;;;;;12.80;5.03;;;12.30;66.30;;;;;;6243495;28;20481;-73
2024/01/25 02:11:16;;;;;;;12.25;5.32;;;12.30;66.40;;;;;;6244104;28;20026;-73
2024/01/25 02:14:17;;;;;;;20.35;6.40;;;12.30;66.30;;;;;;6242814;28;20138;-72
2024/01/25 02:17:18;;;;;;;24.52;5.45;;;12.40;66.40;;;;;;6240492;28;20067;-73
2024/01/25 02:20:19;;;;;;;18.75;4.63;;;12.40;66.30;;;;;;6241793;28;20048;-72
2024/01/25 02:23:20;;;;;;;15.20;5.03;;;12.40;66.20;;;;;;6227051;28;20067;-72
2024/01/25 02:26:21;;;;;;;12.90;4.40;;;12.50;66.20;;;;;;6234328;28;20025;-72
2024/01/25 02:29:22;;;;;;;11.57;4.60;;;12.50;66.20;;;;;;6260607;28;20017;-73
2024/01/25 02:32:24;;;;;;;12.88;4.75;;;12.50;66.20;;;;;;6228210;28;20033;-72
2024/01/25 02:35:25;;;;;;;14.82;4.85;;;12.50;66.20;;;;;;6248857;28;20072;-72
2024/01/25 02:38:26;;;;;;;9.38;4.28;;;12.50;66.20;;;;;;6246543;28;20100;-72
2024/01/25 02:41:30;;;;;;;10.63;4.18;;;12.50;66.30;;;;;;6242287;28;20520;-72
2024/01/25 02:44:31;;;;;;;10.80;4.07;;;12.50;66.30;;;;;;6241790;28;20041;-71
2024/01/25 02:47:33;;;;;;;6.85;3.65;;;12.50;66.40;;;;;;6237298;28;20025;-72
2024/01/25 02:50:34;;;;;;;7.65;4.13;;;12.50;66.40;;;;;;6248909;28;20027;-72
2024/01/25 02:53:35;;;;;;;7.15;3.85;;;12.50;66.50;;;;;;6278060;28;20801;-72
2024/01/25 02:56:35;;;;;;;8.50;4.43;;;12.50;66.50;;;;;;6242009;28;20063;-73
2024/01/25 02:59:36;;;;;;;7.90;4.05;;;12.50;66.60;;;;;;6244232;28;20025;-72
2024/01/25 03:02:38;;;;;;;7.03;3.78;;;12.50;66.70;;;;;;6243394;28;20112;-71
2024/01/25 03:05:38;;;;;;;8.70;4.03;;;12.50;66.80;;;;;;6259482;28;20032;-73
2024/01/25 03:08:39;;;;;;;8.30;3.97;;;12.40;66.90;;;;;;6242800;28;20017;-72
2024/01/25 03:11:40;;;;;;;6.78;3.45;;;12.50;67.10;;;;;;6243121;28;20130;-73
2024/01/25 03:14:41;;;;;;;8.45;3.67;;;12.50;67.20;;;;;;6242463;28;20040;-72
2024/01/25 03:17:43;;;;;;;13.43;4.00;;;12.50;67.20;;;;;;6243611;28;20155;-73
2024/01/25 03:20:44;;;;;;;12.57;4.68;;;12.50;67.20;;;;;;6248098;28;20039;-72
2024/01/25 03:23:45;;;;;;;9.43;3.83;;;12.50;67.10;;;;;;6245478;28;20025;-72
2024/01/25 03:26:45;;;;;;;10.10;3.88;;;12.50;67.10;;;;;;6242969;28;20631;-72
2024/01/25 03:29:46;;;;;;;9.20;4.25;;;12.60;67.10;;;;;;6239417;28;20045;-72
2024/01/25 03:32:47;;;;;;;10.80;4.32;;;12.60;67.10;;;;;;6241836;28;20075;-74
2024/01/25 03:35:48;;;;;;;10.85;4.50;;;12.60;67.10;;;;;;6242228;28;20034;-73
2024/01/25 03:38:49;;;;;;;9.65;4.32;;;12.60;66.90;;;;;;6239601;28;20102;-72
2024/01/25 03:41:49;;;;;;;12.25;4.78;;;12.70;66.80;;;;;;6245569;28;20090;-72
2024/01/25 03:44:51;;;;;;;11.02;4.82;;;12.70;66.60;;;;;;6272298;28;20044;-71
2024/01/25 03:47:54;;;;;;;17.83;4.25;;;12.70;66.50;;;;;;6271703;28;20096;-73
2024/01/25 03:50:56;;;;;;;6.72;3.90;;;12.70;66.40;;;;;;6246776;28;20532;-73
2024/01/25 03:53:58;;;;;;;12.35;5.00;;;12.70;66.40;;;;;;6243178;28;20142;-72
2024/01/25 03:56:58;;;;;;;9.40;4.28;;;12.70;66.40;;;;;;6239599;28;20033;-73
2024/01/25 03:59:59;;;;;;;9.52;4.10;;;12.60;66.40;;;;;;6259846;28;20032;-72
2024/01/25 04:03:00;;;;;;;9.23;4.07;;;12.60;66.40;;;;;;6240515;28;20033;-73
2024/01/25 04:06:01;;;;;;;11.00;4.25;;;12.60;66.50;;;;;;6246218;28;20198;-71
2024/01/25 04:09:04;;;;;;;10.35;3.80;;;12.70;66.60;;;;;;6260705;28;20071;-72
2024/01/25 04:12:06;;;;;;;8.50;4.90;;;12.70;66.50;;;;;;6246410;28;20024;-71
2024/01/25 04:15:07;;;;;;;10.45;4.28;;;12.70;66.50;;;;;;6248575;28;20170;-73
2024/01/25 04:18:08;;;;;;;5.72;3.67;;;12.70;66.40;;;;;;6249029;28;20117;-72
2024/01/25 04:21:09;;;;;;;13.48;4.93;;;12.80;66.40;;;;;;6251038;28;20013;-73
2024/01/25 04:24:10;;;;;;;9.18;4.28;;;12.80;66.40;;;;;;6236348;28;20124;-72
2024/01/25 04:27:11;;;;;;;11.38;4.38;;;12.80;66.50;;;;;;6249169;28;20105;-72
2024/01/25 04:30:12;;;;;;;8.38;4.45;;;12.80;66.60;;;;;;6249049;28;20067;-72
2024/01/25 04:33:12;;;;;;;9.25;4.43;;;12.80;66.60;;;;;;6279163;28;20494;-72
2024/01/25 04:36:13;;;;;;;9.55;4.13;;;12.70;66.60;;;;;;6250338;28;20465;-73
2024/01/25 04:39:15;;;;;;;9.13;4.15;;;12.70;66.80;;;;;;6284029;28;20170;-72
2024/01/25 04:42:15;;;;;;;9.13;4.38;;;12.70;66.80;;;;;;6253128;28;20473;-71
2024/01/25 04:45:16;;;;;;;9.70;4.15;;;12.70;66.90;;;;;;6250836;28;20017;-72
2024/01/25 04:48:17;;;;;;;8.93;4.55;;;12.70;66.90;;;;;;6243323;28;20084;-72
2024/01/25 04:51:22;;;;;;;12.10;4.47;;;12.70;67.10;;;;;;6247491;28;20018;-73
2024/01/25 04:54:23;;;;;;;11.90;4.05;;;12.70;67.00;;;;;;6247657;28;20056;-72
2024/01/25 04:57:23;;;;;;;12.88;5.22;;;12.80;67.10;;;;;;6262376;28;20043;-72
2024/01/25 05:00:26;;;;;;;7.18;3.60;;;12.80;67.10;;;;;;6238130;28;20021;-72
2024/01/25 05:03:27;;;;;;;6.95;4.13;;;12.80;67.10;;;;;;6244963;28;20060;-72
2024/01/25 05:06:28;;;;;;;13.73;4.78;;;12.80;67.20;;;;;;6242498;28;20430;-72
2024/01/25 05:09:28;;;;;;;12.82;4.38;;;12.80;67.30;;;;;;6273257;28;20014;-72
2024/01/25 05:12:29;;;;;;;21.45;5.03;;;12.80;67.30;;;;;;6229794;28;20035;-72
2024/01/25 05:15:31;;;;;;;8.48;3.90;;;12.80;67.30;;;;;;6248315;28;20017;-73
2024/01/25 05:18:32;;;;;;;10.10;4.25;;;12.80;67.30;;;;;;6233503;28;20032;-72
2024/01/25 05:21:32;;;;;;;8.32;4.40;;;12.90;67.30;;;;;;6235975;28;20572;-74
2024/01/25 05:24:33;;;;;;;9.75;4.65;;;12.90;67.30;;;;;;6251192;28;20484;-73
2024/01/25 05:27:34;;;;;;;8.85;4.55;;;12.90;67.30;;;;;;6243716;28;20438;-73
2024/01/25 05:30:36;;;;;;;17.75;5.40;;;13.00;67.10;;;;;;6241932;28;20020;-72
2024/01/25 05:33:37;;;;;;;9.63;4.30;;;13.00;67.00;;;;;;6250600;28;20021;-73
2024/01/25 05:36:37;;;;;;;12.68;4.80;;;13.10;67.00;;;;;;6231630;28;20409;-72
2024/01/25 05:39:38;;;;;;;9.05;4.68;;;13.10;66.80;;;;;;6241693;28;20029;-73
2024/01/25 05:42:40;;;;;;;12.30;5.50;;;13.00;66.70;;;;;;6244986;28;20127;-74
2024/01/25 05:45:41;;;;;;;9.70;5.05;;;13.00;66.80;;;;;;6248396;28;20032;-74
2024/01/25 05:48:42;;;;;;;13.57;4.82;;;13.00;66.70;;;;;;6243258;28;20097;-72
2024/01/25 05:51:43;;;;;;;11.60;5.45;;;13.00;66.70;;;;;;6243616;28;20362;-73
2024/01/25 05:54:44;;;;;;;8.73;4.50;;;13.00;66.70;;;;;;6243730;28;20029;-72
2024/01/25 05:57:45;;;;;;;18.77;5.63;;;13.00;66.80;;;;;;6248909;28;20025;-74
2024/01/25 06:00:46;;;;;;;18.70;5.47;;;12.90;67.50;;;;;;6242959;28;20026;-73
2024/01/25 06:03:47;;;;;;;13.90;5.63;;;12.90;66.60;;;;;;6248517;28;20029;-73
2024/01/25 06:06:49;;;;;;;9.88;4.53;;;12.90;67.40;;;;;;6248230;28;20017;-73
2024/01/25 06:09:50;;;;;;;7.80;4.47;;;12.80;66.60;;;;;;6233300;28;20043;-73
2024/01/25 06:12:51;;;;;;;11.82;5.05;;;12.80;66.70;;;;;;6243673;28;20025;-74
2024/01/25 06:15:51;;;;;;;8.55;4.82;;;12.70;66.70;;;;;;6281075;28;20107;-72
2024/01/25 06:18:52;;;;;;;16.67;4.68;;;12.70;66.80;;;;;;6244197;28;20132;-73
2024/01/25 06:21:53;;;;;;;8.88;5.13;;;12.60;66.90;;;;;;6244755;28;20025;-73
2024/01/25 06:24:54;;;;;;;12.50;5.15;;;12.60;67.00;;;;;;6263243;28;20041;-72
2024/01/25 06:27:56;;;;;;;9.35;4.80;;;12.60;67.00;;;;;;6246234;28;20048;-73
2024/01/25 06:30:57;;;;;;;11.45;4.95;;;12.60;67.00;;;;;;6243112;28;20025;-73
2024/01/25 06:33:57;;;;;;;15.63;5.35;;;12.60;67.00;;;;;;6247151;28;20389;-71
2024/01/25 06:36:58;;;;;;;12.60;5.20;;;12.60;67.00;;;;;;6242106;28;20019;-73
2024/01/25 06:39:59;;;;;;;12.30;5.13;;;12.60;67.00;;;;;;6245188;28;20021;-72
2024/01/25 06:43:00;;;;;;;11.00;4.93;;;12.60;67.10;;;;;;6242808;28;20377;-72
2024/01/25 06:46:01;;;;;;;11.23;4.82;;;12.60;67.10;;;;;;6249525;28;20053;-74
2024/01/25 06:49:02;;;;;;;10.68;4.70;;;12.60;67.10;;;;;;6244893;28;20025;-73
2024/01/25 06:52:04;;;;;;;13.27;5.70;;;12.60;67.10;;;;;;6225781;28;20013;-73
2024/01/25 06:55:05;;;;;;;12.15;5.40;;;12.50;67.20;;;;;;6245231;28;20059;-74
2024/01/25 06:58:06;;;;;;;17.00;5.25;;;12.50;67.40;;;;;;6242587;28;20112;-73
2024/01/25 07:01:06;;;;;;;10.75;5.15;;;12.50;67.60;;;;;;6243644;28;20017;-72
2024/01/25 07:04:07;;;;;;;28.85;5.88;;;12.40;67.70;;;;;;6258634;28;20465;-74
2024/01/25 07:07:09;;;;;;;9.32;4.25;;;12.40;67.60;;;;;;6234360;28;20174;-72
2024/01/25 07:10:10;;;;;;;11.43;5.63;;;12.50;67.80;;;;;;6232427;28;20027;-73
2024/01/25 07:13:11;;;;;;;10.90;4.45;;;12.50;67.90;;;;;;6257627;28;20341;-71
2024/01/25 07:16:12;;;;;;;13.50;4.63;;;12.50;67.80;;;;;;6243134;28;20012;-73
2024/01/25 07:19:13;;;;;;;11.35;4.40;;;12.60;67.80;;;;;;6241826;28;20485;-71
2024/01/25 07:22:15;;;;;;;16.15;5.30;;;12.60;67.70;;;;;;6241422;28;20040;-72
2024/01/25 07:25:16;;;;;;;10.05;4.25;;;12.60;67.70;;;;;;6242718;28;20029;-73
2024/01/25 07:28:19;;;;;;;8.13;4.20;;;12.70;67.60;;;;;;6244764;28;20022;-73
2024/01/25 07:31:20;;;;;;;8.85;4.70;;;12.70;67.60;;;;;;6235193;28;20060;-72
2024/01/25 07:34:20;;;;;;;11.57;4.45;;;12.70;67.60;;;;;;6268027;28;20104;-72
2024/01/25 07:37:21;;;;;;;19.13;4.15;;;12.70;67.60;;;;;;6242677;28;20109;-72
2024/01/25 07:40:22;;;;;;;13.55;4.75;;;12.70;67.50;;;;;;6244853;28;20075;-72
2024/01/25 07:43:23;;;;;;;9.63;4.57;;;12.70;67.50;;;;;;6259213;28;20055;-71
2024/01/25 07:46:24;;;;;;;9.75;4.40;;;12.80;67.50;;;;;;6250443;28;20445;-72
2024/01/25 07:49:25;;;;;;;10.82;4.78;;;12.80;67.40;;;;;;6214586;28;20021;-72
2024/01/25 07:52:27;;;;;;;13.35;4.50;;;12.80;67.20;;;;;;6247046;28;20025;-72
2024/01/25 07:55:29;;;;;;;9.00;3.88;;;12.90;67.20;;;;;;6247751;28;20021;-71
2024/01/25 07:58:30;;;;;;;9.50;5.38;;;12.90;67.20;;;;;;6275763;28;20025;-73
2024/01/25 08:01:31;;;;;;;11.98;4.57;;;12.90;66.90;;;;;;6245396;28;20115;-71
2024/01/25 08:04:32;;;;;;;10.45;4.95;;;12.90;66.80;;;;;;6250698;28;20680;-73
2024/01/25 08:07:33;;;;;;;8.57;4.60;;;12.90;66.80;;;;;;6247361;28;20017;-71
2024/01/25 08:10:34;;;;;;;9.20;4.15;;;12.90;66.80;;;;;;6246465;28;20036;-73
2024/01/25 08:13:35;;;;;;;11.30;4.63;;;13.00;66.90;;;;;;6237838;28;20582;-71
2024/01/25 08:16:36;;;;;;;15.65;5.13;;;13.00;66.70;;;;;;6241527;28;20021;-71
2024/01/25 08:19:37;;;;;;;10.00;4.63;;;13.00;66.50;;;;;;6246769;28;20017;-72
2024/01/25 08:22:37;;;;;;;13.23;5.00;;;13.00;66.40;;;;;;6260411;28;20102;-72
2024/01/25 08:25:38;;;;;;;7.57;4.57;;;13.10;66.30;;;;;;6247850;28;20096;-74
2024/01/25 08:28:40;;;;;;;14.50;5.18;;;13.10;66.20;;;;;;6256613;28;20009;-70
2024/01/25 08:31:41;;;;;;;11.65;4.53;;;13.20;66.00;;;;;;6249105;28;20060;-73
2024/01/25 08:34:42;;;;;;;12.98;5.00;;;13.30;65.70;;;;;;6233224;28;20477;-72
2024/01/25 08:37:43;;;;;;;12.07;5.97;;;13.30;65.30;;;;;;6243687;28;20027;-71
2024/01/25 08:40:44;;;;;;;13.15;4.85;;;13.40;65.40;;;;;;6278014;28;20493;-72
2024/01/25 08:43:44;;;;;;;12.80;5.60;;;13.40;65.30;;;;;;6239649;28;20135;-71
2024/01/25 08:46:45;;;;;;;13.43;5.68;;;13.40;65.20;;;;;;6243817;28;20121;-72
2024/01/25 08:49:46;;;;;;;11.98;5.68;;;13.50;65.00;;;;;;6243978;28;20021;-71
2024/01/25 08:52:49;;;;;;;14.02;5.30;;;13.60;65.00;;;;;;6244782;28;20045;-71
2024/01/25 08:55:50;;;;;;;14.23;5.28;;;13.70;64.80;;;;;;6277851;28;20079;-71
2024/01/25 08:58:52;;;;;;;9.38;5.07;;;13.80;64.60;;;;;;6242986;28;20131;-71
2024/01/25 09:01:53;;;;;;;6.10;4.00;;;13.90;64.20;;;;;;6241831;28;20505;-72
2024/01/25 09:04:53;;;;;;;8.18;4.28;;;13.80;63.70;;;;;;6240664;28;20041;-72
2024/01/25 09:07:54;;;;;;;11.43;4.70;;;14.00;63.60;;;;;;6241509;28;20470;-72
2024/01/25 09:10:55;;;;;;;12.65;5.13;;;14.00;63.40;;;;;;6262207;28;20089;-72
2024/01/25 09:13:56;;;;;;;17.05;5.25;;;14.00;63.30;;;;;;6243126;28;20358;-71
2024/01/25 09:16:57;;;;;;;15.40;5.30;;;14.00;63.40;;;;;;6245818;28;20033;-72
2024/01/25 09:20:00;;;;;;;23.15;5.78;;;14.00;63.40;;;;;;6242967;28;20784;-70
2024/01/25 09:23:01;;;;;;;11.98;4.75;;;14.10;63.40;;;;;;6240631;28;20158;-72
2024/01/25 09:26:03;;;;;;;24.90;8.77;;;14.10;63.00;;;;;;6242653;28;20099;-72
2024/01/25 09:29:04;;;;;;;13.25;5.65;;;14.20;62.80;;;;;;6246258;28;20449;-70
2024/01/25 09:32:08;;;;;;;16.20;6.65;;;14.20;62.40;;;;;;6246527;28;20422;-71
2024/01/25 09:35:09;;;;;;;8.60;4.30;;;14.10;62.40;;;;;;6248594;28;20029;-73
2024/01/25 09:38:10;;;;;;;20.73;4.65;;;14.20;62.60;;;;;;6225553;28;20032;-71
2024/01/25 09:41:10;;;;;;;14.70;5.53;;;14.20;62.40;;;;;;6257577;28;20039;-72
2024/01/25 09:44:12;;;;;;;17.80;4.80;;;14.20;62.20;;;;;;6243170;28;20152;-72
2024/01/25 09:47:16;;;;;;;17.17;6.43;;;14.30;62.40;;;;;;6247285;28;20029;-71
2024/01/25 09:50:18;;;;;;;9.38;4.80;;;14.40;62.30;;;;;;6241912;28;20124;-72
2024/01/25 09:53:23;;;;;;;13.93;5.15;;;14.60;62.10;;;;;;6240568;28;20029;-72
2024/01/25 09:56:25;;;;;;;11.85;5.05;;;14.70;61.80;;;;;;6278070;28;20115;-69
2024/01/25 09:59:27;;;;;;;9.52;4.80;;;14.90;61.60;;;;;;6249808;28;20024;-71
2024/01/25 10:02:28;;;;;;;12.98;4.88;;;15.00;60.90;;;;;;6243678;28;20121;-72
2024/01/25 10:05:29;;;;;;;12.38;4.28;;;15.10;60.40;;;;;;6247879;28;20180;-73
2024/01/25 10:08:30;;;;;;;7.13;3.40;;;15.10;60.30;;;;;;6276296;28;20056;-72
2024/01/25 10:11:35;;;;;;;17.30;4.55;;;15.20;59.90;;;;;;6237285;28;20044;-72
2024/01/25 10:14:36;;;;;;;7.15;4.07;;;15.20;59.40;;;;;;6239171;28;20060;-71
2024/01/25 10:17:37;;;;;;;9.75;4.88;;;15.20;59.30;;;;;;6242895;28;20353;-74
2024/01/25 10:20:44;;;;;;;9.50;5.07;;;15.20;59.40;;;;;;6230494;28;20591;-72
2024/01/25 10:23:47;;;;;;;10.23;5.35;;;15.20;59.40;;;;;;6223297;28;20020;-73
2024/01/25 10:26:49;;;;;;;12.57;4.88;;;15.20;59.60;;;;;;6243274;28;20445;-74
2024/01/25 10:29:51;;;;;;;15.85;5.88;;;15.30;59.70;;;;;;6261051;28;20102;-72
2024/01/25 10:32:52;;;;;;;10.40;4.93;;;15.30;59.80;;;;;;6258273;28;20067;-72
2024/01/25 10:36:02;;;;;;;21.63;5.88;;;15.30;59.50;;;;;;6240048;28;20227;-73
2024/01/25 10:39:04;;;;;;;9.68;4.80;;;15.30;59.40;;;;;;6272850;28;20029;-72
2024/01/25 10:42:06;;;;;;;14.63;5.35;;;15.30;59.50;;;;;;6244415;28;20033;-72
2024/01/25 10:45:07;;;;;;;13.52;4.70;;;15.30;59.50;;;;;;6244634;28;20029;-72
2024/01/25 10:48:09;;;;;;;11.93;4.20;;;15.20;59.40;;;;;;6241078;28;20022;-72
2024/01/25 10:51:10;;;;;;;8.20;3.70;;;15.30;59.40;;;;;;6248894;28;20037;-71
2024/01/25 10:54:15;;;;;;;8.35;3.78;;;15.40;59.30;;;;;;6254948;28;20032;-73
2024/01/25 10:57:17;;;;;;;17.92;5.22;;;15.70;59.00;;;;;;6242558;28;20040;-72
2024/01/25 11:00:20;;;;;;;9.07;3.97;;;16.00;58.40;;;;;;6248328;28;20017;-72
2024/01/25 11:03:27;;;;;;;7.50;4.10;;;16.20;57.70;;;;;;6252434;28;20200;-73
2024/01/25 11:06:28;;;;;;;23.38;8.77;;;16.20;57.50;;;;;;6246742;28;20029;-72
2024/01/25 11:09:29;;;;;;;6.32;3.20;;;16.40;57.10;;;;;;6244332;28;20028;-73
2024/01/25 11:12:30;;;;;;;8.60;3.55;;;16.70;56.60;;;;;;6241109;28;20097;-72
2024/01/25 11:15:33;;;;;;;8.05;3.88;;;17.30;56.00;;;;;;6240637;28;20025;-74
2024/01/25 11:18:34;;;;;;;9.45;4.20;;;18.00;54.90;;;;;;6243332;28;20064;-73
2024/01/25 11:21:48;;;;;;;9.98;4.28;;;18.70;53.40;;;;;;6278830;28;20036;-72
2024/01/25 11:24:49;;;;;;;7.55;3.28;;;19.30;52.10;;;;;;6241785;28;20041;-73
2024/01/25 11:27:51;;;;;;;7.45;3.33;;;19.40;50.60;;;;;;6243583;28;20084;-73
2024/01/25 11:30:52;;;;;;;9.82;3.60;;;19.20;51.00;;;;;;6227712;28;20544;-72
2024/01/25 11:33:59;;;;;;;8.30;3.40;;;18.80;51.70;;;;;;6240660;28;20178;-74
2024/01/25 11:37:01;;;;;;;7.53;2.85;;;18.70;52.10;;;;;;6241142;28;20035;-73
2024/01/25 11:40:03;;;;;;;5.25;2.75;;;18.80;52.10;;;;;;6245339;28;20029;-73
2024/01/25 11:43:10;;;;;;;12.02;3.13;;;18.90;51.90;;;;;;6246727;28;20111;-71
2024/01/25 11:46:13;;;;;;;5.70;2.80;;;19.20;51.60;;;;;;6277822;28;20029;-73
2024/01/25 11:49:14;;;;;;;8.80;3.50;;;19.50;51.10;;;;;;6240872;28;20013;-72
2024/01/25 11:52:15;;;;;;;7.20;3.20;;;19.70;50.80;;;;;;6243879;28;20075;-72
2024/01/25 11:55:16;;;;;;;7.95;3.22;;;19.80;50.50;;;;;;6270347;28;20114;-73
2024/01/25 11:58:17;;;;;;;7.70;3.13;;;19.80;50.30;;;;;;6245392;28;20005;-73
2024/01/25 12:01:20;;;;;;;6.07;2.80;;;19.60;50.00;;;;;;6242063;28;20045;-73
2024/01/25 12:04:21;;;;;;;11.13;2.55;;;19.50;50.10;;;;;;6243197;28;20125;-72
2024/01/25 12:07:22;;;;;;;7.57;3.00;;;19.20;50.10;;;;;;6244234;28;20020;-73
2024/01/25 12:10:26;;;;;;;7.22;2.30;;;19.10;50.40;;;;;;6240454;28;20009;-72
2024/01/25 12:13:26;;;;;;;8.68;2.50;;;19.00;50.40;;;;;;6241872;28;20341;-74
2024/01/25 12:16:37;;;;;;;5.38;2.42;;;19.00;50.40;;;;;;6243385;28;20049;-74
2024/01/25 12:19:38;;;;;;;7.03;2.45;;;19.00;50.30;;;;;;6242392;28;20038;-73
2024/01/25 12:22:39;;;;;;;5.53;2.88;;;19.00;50.30;;;;;;6241204;28;20446;-73
2024/01/25 12:25:41;;;;;;;5.00;2.50;;;19.10;50.30;;;;;;6247934;28;20512;-72
2024/01/25 12:28:42;;;;;;;4.40;2.65;;;19.10;50.00;;;;;;6263944;28;20116;-71
2024/01/25 12:31:43;;;;;;;5.93;2.65;;;19.20;49.90;;;;;;6249443;28;20103;-71
2024/01/25 12:35:00;;;;;;;6.00;2.42;;;19.20;49.70;;;;;;6236883;28;20053;-73
2024/01/25 12:38:01;;;;;;;10.50;3.88;;;19.10;49.80;;;;;;6245697;28;20032;-73
2024/01/25 12:41:02;;;;;;;6.80;2.45;;;19.00;49.70;;;;;;6241287;28;20029;-72
2024/01/25 12:44:03;;;;;;;5.78;2.45;;;18.90;49.80;;;;;;6265095;28;20030;-72
2024/01/25 12:47:06;;;;;;;6.18;2.83;;;18.80;50.00;;;;;;6247346;28;20052;-72
2024/01/25 12:50:08;;;;;;;3.67;2.42;;;18.50;50.30;;;;;;6248156;28;20017;-72
2024/01/25 12:53:14;;;;;;;7.07;1.98;;;18.30;50.60;;;;;;6225101;28;20134;-72
2024/01/25 12:56:15;;;;;;;5.45;2.72;;;18.20;50.90;;;;;;6243362;28;20027;-74
2024/01/25 12:59:15;;;;;;;6.20;2.15;;;18.00;51.30;;;;;;6242008;28;20017;-73
2024/01/25 13:02:16;;;;;;;3.70;2.05;;;17.90;51.70;;;;;;6229155;28;20032;-72
2024/01/25 13:05:17;;;;;;;3.72;1.95;;;17.80;52.00;;;;;;6246267;28;20056;-72
2024/01/25 13:08:18;;;;;;;4.88;2.53;;;17.80;52.10;;;;;;6234121;28;20024;-73
2024/01/25 13:11:19;;;;;;;3.88;1.90;;;17.80;52.30;;;;;;6211066;28;20044;-73
2024/01/25 13:14:20;;;;;;;7.60;2.35;;;17.70;52.40;;;;;;6240961;28;20454;-73
2024/01/25 13:17:23;;;;;;;4.97;2.30;;;17.70;52.50;;;;;;6243436;28;20033;-73
2024/01/25 13:20:23;;;;;;;3.38;1.65;;;17.60;52.70;;;;;;6243996;28;20098;-73
2024/01/25 13:23:24;;;;;;;4.93;1.90;;;17.70;52.80;;;;;;6245188;28;20028;-72
2024/01/25 13:26:25;;;;;;;4.38;2.03;;;17.60;53.00;;;;;;6239488;28;20021;-73
2024/01/25 13:29:26;;;;;;;5.25;1.85;;;17.60;53.10;;;;;;6243823;28;20049;-72
2024/01/25 13:32:27;;;;;;;6.15;1.95;;;17.60;53.20;;;;;;6262163;28;20516;-72
2024/01/25 13:35:28;;;;;;;3.30;1.80;;;17.60;53.20;;;;;;6244288;28;20023;-72
2024/01/25 13:38:29;;;;;;;6.60;2.38;;;17.60;53.30;;;;;;6245905;28;20016;-72
2024/01/25 13:41:30;;;;;;;6.05;1.85;;;17.70;53.40;;;;;;6242427;28;20028;-73
2024/01/25 13:44:30;;;;;;;9.65;2.10;;;17.70;53.40;;;;;;6234033;28;20047;-72
2024/01/25 13:47:31;;;;;;;5.55;1.75;;;17.70;54.10;;;;;;6245441;28;20096;-72
2024/01/25 13:50:32;;;;;;;3.47;1.67;;;17.70;53.50;;;;;;6249363;28;20441;-73
2024/01/25 13:53:34;;;;;;;8.75;1.80;;;17.70;53.60;;;;;;6276400;28;20041;-73
2024/01/25 13:56:35;;;;;;;10.27;1.95;;;17.70;53.60;;;;;;6246598;28;20049;-72
2024/01/25 13:59:35;;;;;;;2.47;1.30;;;17.70;53.70;;;;;;6250158;28;20021;-71
2024/01/25 14:02:36;;;;;;;4.22;1.35;;;17.70;53.70;;;;;;6249902;28;20121;-72
2024/01/25 14:05:37;;;;;;;6.47;1.45;;;17.80;53.70;;;;;;6266127;28;20060;-73
2024/01/25 14:08:38;;;;;;;4.80;1.30;;;17.80;53.70;;;;;;6277280;28;20017;-72
2024/01/25 14:11:39;;;;;;;8.82;1.50;;;17.70;53.60;;;;;;6244534;28;20056;-72
2024/01/25 14:14:40;;;;;;;3.38;1.63;;;17.60;53.50;;;;;;6247096;28;20025;-71
2024/01/25 14:17:40;;;;;;;4.25;1.63;;;17.70;53.60;;;;;;6241099;28;20437;-71
2024/01/25 14:20:41;;;;;;;4.13;1.63;;;17.70;53.60;;;;;;6241858;28;20021;-72
2024/01/25 14:23:42;;;;;;;6.80;1.10;;;17.80;53.60;;;;;;6241866;28;20026;-71
2024/01/25 14:26:45;;;;;;;2.50;1.05;;;17.80;53.50;;;;;;6234279;28;20057;-72
2024/01/25 14:29:45;;;;;;;6.32;1.10;;;17.80;53.30;;;;;;6244193;28;20039;-72
2024/01/25 14:32:46;;;;;;;5.72;1.45;;;17.80;53.20;;;;;;6247973;28;20021;-71
2024/01/25 14:35:47;;;;;;;2.60;1.30;;;17.90;53.30;;;;;;6247286;28;20473;-72
2024/01/25 14:38:48;;;;;;;4.72;1.17;;;17.90;53.40;;;;;;6274961;28;20144;-72
2024/01/25 14:41:49;;;;;;;7.72;1.27;;;17.90;53.40;;;;;;6244812;28;20037;-72
2024/01/25 14:44:49;;;;;;;6.30;1.45;;;17.90;53.50;;;;;;6244785;28;20121;-73
2024/01/25 14:47:50;;;;;;;2.65;1.30;;;17.90;53.50;;;;;;6246844;28;20045;-72
2024/01/25 14:55:15;;;;;;;2.67;1.38;;;17.80;53.50;;;;;;6243117;28;20146;-73
2024/01/25 14:58:22;;;;;;;3.00;1.45;;;17.80;53.50;;;;;;6278057;28;20033;-70
2024/01/25 15:01:28;;;;;;;6.72;1.75;;;17.80;53.60;;;;;;6241157;28;20072;-72
2024/01/25 15:04:30;;;;;;;2.35;1.10;;;17.80;53.70;;;;;;6242484;28;20073;-72
2024/01/25 15:07:31;;;;;;;1.55;1.13;;;17.80;53.70;;;;;;6239305;28;20040;-72
2024/01/25 15:10:32;;;;;;;2.17;1.30;;;17.80;53.70;;;;;;6243779;28;20448;-73
2024/01/25 15:13:33;;;;;;;4.00;1.25;;;17.80;53.60;;;;;;6258405;28;20025;-72
2024/01/25 15:16:37;;;;;;;1.05;0.80;;;17.70;53.40;;;;;;6250778;28;20028;-70
2024/01/25 15:19:38;;;;;;;1.70;1.13;;;17.70;53.40;;;;;;6239879;28;20032;-73
2024/01/25 15:22:39;;;;;;;3.30;0.80;;;17.60;53.40;;;;;;6239856;28;20454;-73
2024/01/25 15:25:39;;;;;;;1.27;0.80;;;17.60;53.30;;;;;;6239170;28;20100;-70
2024/01/25 15:28:41;;;;;;;1.88;1.20;;;17.50;53.30;;;;;;6242637;28;20017;-73
2024/01/25 15:31:43;;;;;;;1.17;0.90;;;17.50;53.40;;;;;;6225160;28;21905;-72
2024/01/25 15:34:43;;;;;;;1.10;0.80;;;17.40;53.30;;;;;;6251960;28;20048;-72
2024/01/25 15:37:44;;;;;;;1.73;0.90;;;17.40;53.40;;;;;;6242406;28;20039;-72
2024/01/25 15:40:45;;;;;;;8.60;1.40;;;17.40;53.50;;;;;;6229510;28;20025;-73
2024/01/25 15:43:46;;;;;;;2.38;1.15;;;17.30;53.50;;;;;;6240864;28;20032;-72